Time;durP1;ratioP1;P1;durP2;ratioP2;P2;SDS_P1;SDS_P2;PMS_P1;PMS_P2;Temp;Humidity;BMP_temperature;BMP_pressure;BME280_temperature;BME280_humidity;BME280_pressure;Samples;Min_cycle;Max_cycle;Signal;HPM_P1;HPM_P2
2021/11/15 00:01:28;;;;;;;;;;;;;;;20.34;54.52;102454.28;7286413;19;152105;-49
2021/11/15 00:03:56;;;;;;;;;;;;;;;20.34;54.58;102454.28;7288892;19;152049;-49
2021/11/15 00:06:22;;;;;;;;;;;;;;;20.32;54.88;102456.50;7284117;19;151833;-49
2021/11/15 00:08:49;;;;;;;;;;;;;;;20.35;55.01;102449.50;7286274;19;152992;-49
2021/11/15 00:11:16;;;;;;;;;;;;;;;20.34;54.75;102453.44;7285385;19;153088;-50
2021/11/15 00:13:42;;;;;;;;;;;;;;;20.31;55.02;102449.19;7285316;19;151903;-48
2021/11/15 00:16:09;;;;;;;;;;;;;;;20.30;54.89;102444.72;7285934;19;153392;-49
2021/11/15 00:18:38;;;;;;;;;;;;;;;20.29;54.96;102448.59;7284076;19;154490;-48
2021/11/15 00:21:04;;;;;;;;;;;;;;;20.29;55.20;102442.13;7281309;19;152592;-48
2021/11/15 00:23:31;;;;;;;;;;;;;;;20.31;55.28;102451.13;7279115;19;152623;-49
2021/11/15 00:25:58;;;;;;;;;;;;;;;20.26;55.38;102443.50;7288210;19;153496;-49
2021/11/15 00:28:25;;;;;;;;;;;;;;;20.26;55.04;102446.31;7281909;19;153594;-48
2021/11/15 00:30:51;;;;;;;;;;;;;;;20.25;55.13;102444.63;7279986;19;152614;-48
2021/11/15 00:33:18;;;;;;;;;;;;;;;20.29;55.08;102450.56;7283121;19;152346;-48
2021/11/15 00:35:45;;;;;;;;;;;;;;;20.25;55.49;102449.41;7282371;19;151973;-49
2021/11/15 00:38:12;;;;;;;;;;;;;;;20.26;55.14;102449.13;7281636;19;153964;-50
2021/11/15 00:40:38;;;;;;;;;;;;;;;20.27;55.59;102450.81;7282845;19;151948;-49
2021/11/15 00:43:06;;;;;;;;;;;;;;;20.24;55.69;102453.31;7282203;19;152594;-49
2021/11/15 00:45:34;;;;;;;;;;;;;;;20.21;55.67;102449.09;7281748;19;154168;-50
2021/11/15 00:48:01;;;;;;;;;;;;;;;20.22;55.78;102455.53;7289508;19;152071;-49
2021/11/15 00:50:27;;;;;;;;;;;;;;;20.20;55.49;102455.81;7280414;19;153306;-49
2021/11/15 00:52:54;;;;;;;;;;;;;;;20.20;55.92;102449.38;7282195;19;152287;-48
2021/11/15 00:55:21;;;;;;;;;;;;;;;20.12;56.41;102449.88;7281938;19;152605;-49
2021/11/15 00:57:48;;;;;;;;;;;;;;;20.12;56.50;102452.69;7279617;19;154441;-48
2021/11/15 01:00:23;;;;;;;;;;;;;;;20.10;56.80;102441.72;7282633;19;152114;-49
2021/11/15 01:02:50;;;;;;;;;;;;;;;20.13;56.96;102454.34;7280871;19;154208;-50
2021/11/15 01:05:17;;;;;;;;;;;;;;;20.16;57.19;102456.63;7280974;19;154124;-48
2021/11/15 01:07:44;;;;;;;;;;;;;;;20.08;57.87;102448.72;7287841;19;153202;-50
2021/11/15 01:10:12;;;;;;;;;;;;;;;20.11;58.03;102449.03;7280814;19;152873;-50
2021/11/15 01:12:42;;;;;;;;;;;;;;;20.14;58.44;102445.66;7278810;19;152140;-49
2021/11/15 01:15:10;;;;;;;;;;;;;;;20.19;57.96;102454.13;7282338;19;153265;-48
2021/11/15 01:17:37;;;;;;;;;;;;;;;20.16;58.42;102448.22;7280185;19;152607;-49
2021/11/15 01:20:06;;;;;;;;;;;;;;;20.22;58.15;102452.72;7280268;19;152294;-50
2021/11/15 01:22:32;;;;;;;;;;;;;;;20.23;57.66;102452.47;7281680;19;153334;-49
2021/11/15 01:24:59;;;;;;;;;;;;;;;20.20;57.49;102452.16;7275938;19;154147;-49
2021/11/15 01:27:26;;;;;;;;;;;;;;;20.15;58.05;102446.50;7281753;19;152160;-49
2021/11/15 01:29:53;;;;;;;;;;;;;;;20.20;57.87;102444.59;7285740;19;154325;-48
2021/11/15 01:32:19;;;;;;;;;;;;;;;20.21;58.72;102451.06;7280709;19;152008;-50
2021/11/15 01:34:46;;;;;;;;;;;;;;;20.10;56.83;102452.94;7281047;19;152621;-49
2021/11/15 01:37:13;;;;;;;;;;;;;;;20.19;58.15;102444.84;7254506;19;156393;-49
2021/11/15 01:39:41;;;;;;;;;;;;;;;20.23;58.02;102443.19;7276140;19;155795;-48
2021/11/15 01:42:09;;;;;;;;;;;;;;;20.24;58.27;102444.91;7281102;19;152780;-49
2021/11/15 01:44:36;;;;;;;;;;;;;;;20.26;58.69;102440.69;7276400;19;154166;-49
2021/11/15 01:47:03;;;;;;;;;;;;;;;20.29;58.51;102439.31;7280357;19;151872;-48
2021/11/15 01:49:30;;;;;;;;;;;;;;;20.31;58.80;102443.56;7277591;19;152068;-48
2021/11/15 01:51:57;;;;;;;;;;;;;;;20.35;59.20;102432.66;7286217;19;154172;-49
2021/11/15 01:54:24;;;;;;;;;;;;;;;20.39;59.00;102442.25;7282859;19;153332;-49
2021/11/15 01:56:51;;;;;;;;;;;;;;;20.44;58.95;102433.00;7282462;19;153304;-49
2021/11/15 01:59:18;;;;;;;;;;;;;;;20.52;59.81;102429.66;7283041;19;151907;-49
2021/11/15 02:01:45;;;;;;;;;;;;;;;20.53;59.47;102435.03;7282855;19;153425;-49
2021/11/15 02:04:12;;;;;;;;;;;;;;;20.58;59.44;102432.22;7279908;19;152761;-48
2021/11/15 02:06:39;;;;;;;;;;;;;;;20.62;59.48;102441.81;7280868;19;151983;-49
2021/11/15 02:09:07;;;;;;;;;;;;;;;20.69;59.58;102438.75;7283331;19;152952;-49
2021/11/15 02:11:34;;;;;;;;;;;;;;;20.72;59.44;102435.38;7281821;19;153345;-48
2021/11/15 02:14:02;;;;;;;;;;;;;;;20.76;59.47;102428.94;7287636;19;151792;-49
2021/11/15 02:16:29;;;;;;;;;;;;;;;20.81;59.53;102426.16;7280709;19;152198;-48
2021/11/15 02:18:57;;;;;;;;;;;;;;;20.86;59.89;102430.94;7282649;19;151772;-49
2021/11/15 02:21:26;;;;;;;;;;;;;;;20.91;59.83;102425.34;7280243;19;153362;-50
2021/11/15 02:23:53;;;;;;;;;;;;;;;20.96;59.74;102424.53;7279274;19;153493;-49
2021/11/15 02:26:21;;;;;;;;;;;;;;;21.01;59.53;102428.22;7281836;19;152215;-49
2021/11/15 02:28:49;;;;;;;;;;;;;;;21.06;59.14;102428.22;7279191;19;152667;-50
2021/11/15 02:31:22;;;;;;;;;;;;;;;21.11;59.46;102421.78;7280686;19;153729;-49
2021/11/15 02:33:51;;;;;;;;;;;;;;;21.15;59.00;102420.97;7282297;19;152162;-48
2021/11/15 02:36:19;;;;;;;;;;;;;;;21.21;59.23;102419.84;7285858;19;152591;-49
2021/11/15 02:38:48;;;;;;;;;;;;;;;21.25;59.23;102411.72;7280838;19;151956;-49
2021/11/15 02:41:16;;;;;;;;;;;;;;;21.33;59.12;102416.81;7280114;19;153363;-49
2021/11/15 02:43:44;;;;;;;;;;;;;;;21.37;59.41;102414.28;7279486;19;153329;-48
2021/11/15 02:46:11;;;;;;;;;;;;;;;21.41;59.03;102413.44;7282192;19;151837;-49
2021/11/15 02:48:38;;;;;;;;;;;;;;;21.45;58.65;102400.50;7286743;19;152663;-49
2021/11/15 02:51:05;;;;;;;;;;;;;;;21.48;58.88;102401.94;7285193;19;153302;-49
2021/11/15 02:53:36;;;;;;;;;;;;;;;21.51;58.83;102398.56;7286062;19;151858;-49
2021/11/15 02:56:04;;;;;;;;;;;;;;;21.58;58.35;102407.53;7284114;19;152347;-49
2021/11/15 02:58:31;;;;;;;;;;;;;;;21.63;58.10;102401.91;7294211;19;152789;-50
2021/11/15 03:00:59;;;;;;;;;;;;;;;21.64;58.49;102398.84;7286490;19;152834;-49
2021/11/15 03:03:27;;;;;;;;;;;;;;;21.68;58.16;102402.78;7284876;19;153520;-49
2021/11/15 03:05:54;;;;;;;;;;;;;;;21.69;57.97;102403.63;7288078;19;152159;-49
2021/11/15 03:08:22;;;;;;;;;;;;;;;21.73;57.63;102399.13;7288016;19;153441;-50
2021/11/15 03:10:50;;;;;;;;;;;;;;;21.76;57.71;102392.91;7284727;19;154160;-50
2021/11/15 03:13:19;;;;;;;;;;;;;;;21.77;57.67;102394.63;7286457;19;153417;-50
2021/11/15 03:15:49;;;;;;;;;;;;;;;21.79;57.37;102397.16;7287464;19;153260;-49
2021/11/15 03:18:17;;;;;;;;;;;;;;;21.79;57.88;102397.16;7293030;19;153515;-49
2021/11/15 03:20:47;;;;;;;;;;;;;;;21.80;57.70;102399.69;7288265;19;152796;-49
2021/11/15 03:23:16;;;;;;;;;;;;;;;21.82;57.42;102396.59;7286544;19;153341;-49
2021/11/15 03:25:43;;;;;;;;;;;;;;;21.81;57.82;102392.91;7282764;19;152209;-49
2021/11/15 03:28:12;;;;;;;;;;;;;;;21.84;57.62;102399.97;7286903;19;153595;-49
2021/11/15 03:30:39;;;;;;;;;;;;;;;21.84;57.14;102400.81;7281841;19;153968;-49
2021/11/15 03:33:07;;;;;;;;;;;;;;;21.85;57.57;102398.84;7285546;19;152006;-49
2021/11/15 03:35:35;;;;;;;;;;;;;;;21.84;57.29;102388.72;7287045;19;152942;-50
2021/11/15 03:38:02;;;;;;;;;;;;;;;21.84;57.27;102395.19;7285226;19;153268;-49
2021/11/15 03:40:29;;;;;;;;;;;;;;;21.85;57.24;102390.41;7294941;19;151926;-49
2021/11/15 03:42:57;;;;;;;;;;;;;;;21.85;57.41;102391.22;7284545;19;153478;-49
2021/11/15 03:45:25;;;;;;;;;;;;;;;21.84;57.49;102395.19;7285185;19;152352;-50
2021/11/15 03:47:52;;;;;;;;;;;;;;;21.84;57.43;102391.53;7287088;19;152690;-50
2021/11/15 03:50:19;;;;;;;;;;;;;;;21.83;57.55;102395.47;7285892;19;153417;-49
2021/11/15 03:52:46;;;;;;;;;;;;;;;21.83;57.37;102393.50;7286645;19;151683;-49
2021/11/15 03:55:14;;;;;;;;;;;;;;;21.83;57.55;102387.03;7284065;19;153558;-48
2021/11/15 03:57:41;;;;;;;;;;;;;;;21.82;57.68;102394.63;7283802;19;153776;-49
2021/11/15 04:00:10;;;;;;;;;;;;;;;21.81;57.93;102386.44;7286307;19;151695;-49
2021/11/15 04:02:37;;;;;;;;;;;;;;;21.84;58.04;102394.34;7291935;19;154676;-49
2021/11/15 04:05:07;;;;;;;;;;;;;;;21.84;58.01;102403.63;7284815;19;153001;-50
2021/11/15 04:07:39;;;;;;;;;;;;;;;21.83;57.70;102403.91;7284113;19;152097;-49
2021/11/15 04:10:10;;;;;;;;;;;;;;;21.86;57.59;102404.19;7283053;19;154373;-49
2021/11/15 04:12:38;;;;;;;;;;;;;;;21.86;57.89;102401.38;7286194;19;151822;-49
2021/11/15 04:15:05;;;;;;;;;;;;;;;21.85;57.88;102407.28;7285621;19;152285;-49
2021/11/15 04:17:33;;;;;;;;;;;;;;;21.84;57.56;102406.44;7285019;19;153910;-49
2021/11/15 04:20:00;;;;;;;;;;;;;;;21.87;57.99;102405.88;7285618;19;151732;-49
2021/11/15 04:22:27;;;;;;;;;;;;;;;21.89;57.74;102405.59;7283580;19;152024;-50
2021/11/15 04:24:54;;;;;;;;;;;;;;;21.88;58.11;102407.56;7290637;19;153363;-46
2021/11/15 04:27:21;;;;;;;;;;;;;;;21.89;58.03;102408.41;7286585;19;152789;-47
2021/11/15 04:29:48;;;;;;;;;;;;;;;21.86;58.58;102408.94;7282584;19;153209;-47
2021/11/15 04:32:15;;;;;;;;;;;;;;;21.88;58.22;102406.72;7285559;19;151726;-47
2021/11/15 04:34:42;;;;;;;;;;;;;;;21.84;58.78;102402.78;7284332;19;154101;-48
2021/11/15 04:37:09;;;;;;;;;;;;;;;21.86;58.45;102403.31;7282460;19;153966;-47
2021/11/15 04:39:35;;;;;;;;;;;;;;;21.85;58.91;102412.91;7284469;19;151916;-46
2021/11/15 04:42:03;;;;;;;;;;;;;;;21.85;58.60;102412.91;7283632;19;153363;-47
2021/11/15 04:44:30;;;;;;;;;;;;;;;21.85;58.88;102410.09;7283227;19;154335;-48
2021/11/15 04:46:57;;;;;;;;;;;;;;;21.84;58.79;102409.25;7290939;19;151750;-47
2021/11/15 04:49:24;;;;;;;;;;;;;;;21.84;59.30;102411.22;7283336;19;153101;-47
2021/11/15 04:51:51;;;;;;;;;;;;;;;21.83;58.71;102416.00;7284032;19;152188;-47
2021/11/15 04:54:19;;;;;;;;;;;;;;;21.84;58.92;102411.22;7284281;19;152788;-48
2021/11/15 04:56:46;;;;;;;;;;;;;;;21.81;58.96;102408.94;7281030;19;154079;-46
2021/11/15 04:59:13;;;;;;;;;;;;;;;21.82;58.84;102405.88;7285204;19;151904;-47
2021/11/15 05:01:41;;;;;;;;;;;;;;;21.81;59.26;102411.78;7282872;19;152233;-46
2021/11/15 05:04:08;;;;;;;;;;;;;;;21.79;58.94;102417.69;7284013;19;153568;-47
2021/11/15 05:06:35;;;;;;;;;;;;;;;21.79;58.75;102425.28;7284420;19;151912;-47
2021/11/15 05:09:02;;;;;;;;;;;;;;;21.78;59.19;102427.25;7288381;19;151797;-46
2021/11/15 05:11:29;;;;;;;;;;;;;;;21.76;59.20;102428.69;7282704;19;151837;-47
2021/11/15 05:13:56;;;;;;;;;;;;;;;21.74;59.30;102423.31;7282752;19;152700;-47
2021/11/15 05:16:23;;;;;;;;;;;;;;;21.70;59.58;102425.84;7281753;19;153718;-47
2021/11/15 05:18:50;;;;;;;;;;;;;;;21.72;59.54;102426.41;7283225;19;152596;-47
2021/11/15 05:21:17;;;;;;;;;;;;;;;21.72;59.49;102428.38;7284186;19;153314;-48
2021/11/15 05:23:44;;;;;;;;;;;;;;;21.70;59.29;102431.47;7282322;19;153666;-47
2021/11/15 05:26:12;;;;;;;;;;;;;;;21.70;59.18;102422.19;7282190;19;151761;-47
2021/11/15 05:28:39;;;;;;;;;;;;;;;21.66;59.31;102427.53;7290220;19;152758;-47
2021/11/15 05:31:05;;;;;;;;;;;;;;;21.67;59.45;102426.41;7283603;19;152264;-47
2021/11/15 05:33:32;;;;;;;;;;;;;;;21.62;59.11;102426.38;7283960;19;152838;-48
2021/11/15 05:36:00;;;;;;;;;;;;;;;21.65;59.04;102434.28;7283200;19;153555;-47
2021/11/15 05:38:27;;;;;;;;;;;;;;;21.60;59.12;102428.66;7284031;19;151851;-48
2021/11/15 05:40:53;;;;;;;;;;;;;;;21.57;59.47;102426.41;7282916;19;152121;-47
2021/11/15 05:43:20;;;;;;;;;;;;;;;21.54;59.39;102421.31;7282653;19;154153;-46
2021/11/15 05:45:47;;;;;;;;;;;;;;;21.54;59.08;102424.13;7279178;19;152551;-47
2021/11/15 05:48:15;;;;;;;;;;;;;;;21.54;58.94;102426.94;7283530;19;153021;-48
2021/11/15 05:50:42;;;;;;;;;;;;;;;21.54;58.88;102421.31;7289433;19;153242;-47
2021/11/15 05:53:09;;;;;;;;;;;;;;;21.56;58.91;102423.88;7283699;19;152620;-47
2021/11/15 05:55:36;;;;;;;;;;;;;;;21.52;58.77;102429.22;7282102;19;152232;-46
2021/11/15 05:58:03;;;;;;;;;;;;;;;21.45;58.90;102419.34;7283038;19;151904;-46
2021/11/15 06:00:31;;;;;;;;;;;;;;;21.47;59.13;102420.75;7281262;19;153279;-46
2021/11/15 06:02:58;;;;;;;;;;;;;;;21.47;59.43;102422.72;7282500;19;153686;-45
2021/11/15 06:05:25;;;;;;;;;;;;;;;21.43;59.16;102427.22;7281749;19;151725;-47
2021/11/15 06:07:53;;;;;;;;;;;;;;;21.43;59.03;102430.03;7283100;19;153042;-46
2021/11/15 06:10:20;;;;;;;;;;;;;;;21.40;59.45;102427.75;7282039;19;153420;-48
2021/11/15 06:12:48;;;;;;;;;;;;;;;21.41;58.86;102435.09;7289843;19;152106;-46
2021/11/15 06:15:16;;;;;;;;;;;;;;;21.36;59.04;102426.63;7281741;19;153532;-47
2021/11/15 06:17:43;;;;;;;;;;;;;;;21.35;59.18;102431.41;7282057;19;152072;-46
2021/11/15 06:20:12;;;;;;;;;;;;;;;21.30;59.19;102426.63;7280105;19;152703;-46
2021/11/15 06:22:39;;;;;;;;;;;;;;;21.30;59.07;102432.25;7283853;19;153293;-46
2021/11/15 06:25:07;;;;;;;;;;;;;;;21.30;59.11;102442.66;7288220;19;151917;-47
2021/11/15 06:27:35;;;;;;;;;;;;;;;21.28;59.20;102448.56;7288996;19;152707;-46
2021/11/15 06:30:03;;;;;;;;;;;;;;;21.25;59.47;102442.66;7283632;19;153571;-47
2021/11/15 06:32:30;;;;;;;;;;;;;;;21.24;58.99;102450.25;7286480;19;152280;-47
2021/11/15 06:34:58;;;;;;;;;;;;;;;21.26;59.15;102452.75;7292284;19;153373;-46
2021/11/15 06:37:25;;;;;;;;;;;;;;;21.20;59.18;102446.28;7287903;19;152001;-48
2021/11/15 06:39:52;;;;;;;;;;;;;;;21.17;59.41;102448.78;7288991;19;153599;-47
2021/11/15 06:42:19;;;;;;;;;;;;;;;21.14;59.33;102444.59;7285191;19;153427;-48
2021/11/15 06:44:46;;;;;;;;;;;;;;;21.14;59.29;102447.38;7288403;19;152967;-46
2021/11/15 06:47:13;;;;;;;;;;;;;;;21.17;59.97;102454.41;7288372;19;153510;-46
2021/11/15 06:49:40;;;;;;;;;;;;;;;21.22;60.30;102460.91;7288104;19;153391;-46
2021/11/15 06:52:07;;;;;;;;;;;;;;;21.26;60.36;102461.19;7286189;19;152406;-47
2021/11/15 06:54:34;;;;;;;;;;;;;;;21.24;60.75;102461.47;7286098;19;153138;-48
2021/11/15 06:57:01;;;;;;;;;;;;;;;21.24;60.66;102461.47;7294251;19;153940;-47
2021/11/15 06:59:28;;;;;;;;;;;;;;;21.25;61.33;102459.53;7286294;19;153366;-46
2021/11/15 07:01:55;;;;;;;;;;;;;;;21.27;61.56;102457.25;7283919;19;152554;-47
2021/11/15 07:04:22;;;;;;;;;;;;;;;21.30;61.62;102462.34;7288259;19;151582;-47
2021/11/15 07:06:49;;;;;;;;;;;;;;;21.33;62.54;102461.78;7284188;19;151906;-47
2021/11/15 07:09:17;;;;;;;;;;;;;;;21.38;62.19;102470.25;7287153;19;152834;-47
2021/11/15 07:11:44;;;;;;;;;;;;;;;21.42;62.30;102468.56;7287621;19;151929;-47
2021/11/15 07:14:11;;;;;;;;;;;;;;;21.48;62.13;102475.03;7288559;19;154073;-49
2021/11/15 07:16:38;;;;;;;;;;;;;;;21.52;62.37;102471.41;7283732;19;152807;-48
2021/11/15 07:19:05;;;;;;;;;;;;;;;21.56;62.11;102478.16;7294869;19;151514;-48
2021/11/15 07:21:32;;;;;;;;;;;;;;;21.60;62.36;102479.28;7286816;19;153245;-47
2021/11/15 07:23:59;;;;;;;;;;;;;;;21.66;62.15;102497.03;7286956;19;151717;-48
2021/11/15 07:26:26;;;;;;;;;;;;;;;21.68;62.57;102498.41;7286053;19;153190;-46
2021/11/15 07:28:53;;;;;;;;;;;;;;;21.70;62.15;102499.00;7284257;19;153962;-47
2021/11/15 07:31:20;;;;;;;;;;;;;;;21.74;61.93;102494.50;7287972;19;152193;-47
2021/11/15 07:33:47;;;;;;;;;;;;;;;21.76;61.80;102499.84;7285915;19;152797;-46
2021/11/15 07:36:16;;;;;;;;;;;;;;;21.80;62.14;102495.38;7286677;19;153398;-47
2021/11/15 07:38:43;;;;;;;;;;;;;;;21.82;62.00;102492.25;7293427;19;152107;-48
2021/11/15 07:41:10;;;;;;;;;;;;;;;21.85;62.26;102488.91;7286503;19;153333;-49
2021/11/15 07:43:37;;;;;;;;;;;;;;;21.86;62.19;102491.41;7286143;19;151797;-47
2021/11/15 07:46:04;;;;;;;;;;;;;;;21.88;62.25;102497.63;7286436;19;152724;-48
2021/11/15 07:48:31;;;;;;;;;;;;;;;21.90;62.02;102491.69;7283139;19;153409;-47
2021/11/15 07:51:01;;;;;;;;;;;;;;;21.92;62.08;102492.25;7283523;19;151874;-49
2021/11/15 07:53:30;;;;;;;;;;;;;;;21.93;61.97;102494.00;7286903;19;152682;-48
2021/11/15 07:55:57;;;;;;;;;;;;;;;21.93;62.07;102491.19;7282960;19;154227;-47
2021/11/15 07:58:24;;;;;;;;;;;;;;;21.94;61.53;102487.25;7283426;19;152026;-47
2021/11/15 08:00:52;;;;;;;;;;;;;;;21.94;61.67;102496.50;7292954;19;153566;-47
2021/11/15 08:03:20;;;;;;;;;;;;;;;21.95;61.35;102498.19;7284739;19;151773;-48
2021/11/15 08:05:46;;;;;;;;;;;;;;;21.96;61.56;102501.88;7285515;19;153648;-49
2021/11/15 08:08:13;;;;;;;;;;;;;;;21.98;61.60;102499.63;7281744;19;153562;-49
2021/11/15 08:10:41;;;;;;;;;;;;;;;21.98;61.14;102500.47;7284859;19;151814;-48
2021/11/15 08:13:08;;;;;;;;;;;;;;;21.98;61.41;102488.38;7283989;19;153536;-48
2021/11/15 08:15:36;;;;;;;;;;;;;;;22.00;60.78;102497.34;7282676;19;153842;-47
2021/11/15 08:18:05;;;;;;;;;;;;;;;22.02;60.88;102498.78;7285815;19;151797;-48
2021/11/15 08:20:35;;;;;;;;;;;;;;;22.02;60.64;102497.94;7283933;19;153422;-49
2021/11/15 08:23:05;;;;;;;;;;;;;;;22.03;60.65;102496.81;7292249;19;154012;-52
2021/11/15 08:25:42;;;;;;;;;;;;;;;22.06;60.65;102497.09;7285744;19;153411;-49
2021/11/15 08:28:09;;;;;;;;;;;;;;;22.07;60.86;102500.75;7282669;19;152610;-48
2021/11/15 08:30:38;;;;;;;;;;;;;;;22.09;60.58;102498.50;7282389;19;151718;-48
2021/11/15 08:33:05;;;;;;;;;;;;;;;22.09;60.75;102501.31;7284553;19;152625;-48
2021/11/15 08:35:32;;;;;;;;;;;;;;;22.10;60.57;102506.66;7283901;19;154195;-49
2021/11/15 08:38:09;;;;;;;;;;;;;;;22.11;60.15;102505.53;7285633;19;152584;-49
2021/11/15 08:40:36;;;;;;;;;;;;;;;22.10;60.74;102501.03;7286403;19;153547;-48
2021/11/15 08:43:03;;;;;;;;;;;;;;;22.10;60.65;102503.00;7284655;19;153465;-49
2021/11/15 08:45:30;;;;;;;;;;;;;;;22.04;61.41;102495.66;7291065;19;151820;-49
2021/11/15 08:47:58;;;;;;;;;;;;;;;22.09;60.88;102495.69;7284171;19;154075;-49
2021/11/15 08:50:24;;;;;;;;;;;;;;;22.09;60.20;102490.91;7282808;19;152206;-48
2021/11/15 08:52:53;;;;;;;;;;;;;;;22.10;60.01;102488.94;7282327;19;152770;-48
2021/11/15 08:55:20;;;;;;;;;;;;;;;22.09;60.06;102485.25;7283948;19;153862;-49
2021/11/15 08:58:07;;;;;;;;;;;;;;;22.08;59.63;102483.56;7284918;19;152559;-47
2021/11/15 09:00:34;;;;;;;;;;;;;;;22.08;59.65;102479.91;7283869;19;152540;-49
2021/11/15 09:03:02;;;;;;;;;;;;;;;22.05;59.54;102484.13;7283226;19;154295;-49
2021/11/15 09:05:29;;;;;;;;;;;;;;;22.07;59.46;102486.69;7280769;19;152264;-49
2021/11/15 09:07:56;;;;;;;;;;;;;;;22.05;59.27;102483.28;7286163;19;152521;-47
2021/11/15 09:10:23;;;;;;;;;;;;;;;22.04;59.23;102490.88;7284932;19;152556;-48
2021/11/15 09:12:50;;;;;;;;;;;;;;;22.04;59.06;102493.69;7283826;19;153104;-49
2021/11/15 09:15:19;;;;;;;;;;;;;;;22.05;59.22;102481.31;7284038;19;153779;-48
2021/11/15 09:17:47;;;;;;;;;;;;;;;22.03;59.53;102494.81;7283759;19;151591;-48
2021/11/15 09:20:14;;;;;;;;;;;;;;;22.02;59.21;102486.69;7282081;19;153032;-48
2021/11/15 09:22:42;;;;;;;;;;;;;;;22.02;59.46;102492.31;7282764;19;153422;-48
2021/11/15 09:25:10;;;;;;;;;;;;;;;21.97;59.73;102493.16;7284979;19;152056;-48
2021/11/15 09:27:39;;;;;;;;;;;;;;;21.98;59.47;102491.19;7281302;19;153316;-48
2021/11/15 09:30:14;;;;;;;;;;;;;;;21.99;59.18;102490.88;7284762;19;151989;-47
2021/11/15 09:32:50;;;;;;;;;;;;;;;21.98;59.21;102494.84;7266995;19;153641;-49
2021/11/15 09:35:28;;;;;;;;;;;;;;;21.98;59.16;102499.63;7265922;19;153363;-48
2021/11/15 09:37:56;;;;;;;;;;;;;;;21.94;58.96;102492.88;7282097;19;152865;-49
2021/11/15 09:40:23;;;;;;;;;;;;;;;21.92;59.18;102490.28;7281771;19;153326;-49
2021/11/15 09:42:54;;;;;;;;;;;;;;;21.89;59.12;102490.88;7281269;19;153508;-47
2021/11/15 09:45:21;;;;;;;;;;;;;;;21.88;59.08;102491.13;7283357;19;152079;-47
2021/11/15 09:47:48;;;;;;;;;;;;;;;21.85;59.32;102486.91;7277660;19;153532;-48
2021/11/15 09:50:17;;;;;;;;;;;;;;;21.86;59.15;102488.59;7290309;19;153458;-48
2021/11/15 09:55:10;;;;;;;;;;;;;;;21.81;59.23;102494.22;7276149;19;155168;-48
2021/11/15 09:57:38;;;;;;;;;;;;;;;21.79;59.20;102498.44;7280536;19;151963;-49
2021/11/15 10:00:11;;;;;;;;;;;;;;;21.77;58.83;102506.31;7280453;19;153908;-49
2021/11/15 10:02:48;;;;;;;;;;;;;;;21.79;59.15;102498.44;7279895;19;152821;-49
2021/11/15 10:05:43;;;;;;;;;;;;;;;21.73;58.88;102509.69;7282606;19;152208;-47
2021/11/15 10:08:40;;;;;;;;;;;;;;;21.73;59.03;102511.66;7282632;19;153349;-47
2021/11/15 10:11:07;;;;;;;;;;;;;;;21.69;58.88;102500.13;7279117;19;154128;-48
2021/11/15 10:17:03;;;;;;;;;;;;;;;21.65;58.94;102504.63;7277207;19;151686;-47
2021/11/15 10:19:39;;;;;;;;;;;;;;;21.59;57.49;102505.72;7280867;19;153606;-49
2021/11/15 10:22:11;;;;;;;;;;;;;;;21.61;57.66;102509.13;7282124;19;152375;-50
2021/11/15 10:24:41;;;;;;;;;;;;;;;21.60;57.18;102515.84;7279893;19;153557;-48
2021/11/15 10:27:11;;;;;;;;;;;;;;;21.60;57.07;102501.78;7279350;19;151669;-49
2021/11/15 10:29:40;;;;;;;;;;;;;;;21.64;57.18;102507.69;7280849;19;152808;-50
2021/11/15 10:32:11;;;;;;;;;;;;;;;21.58;57.23;102503.16;7280284;19;153666;-48
2021/11/15 10:34:41;;;;;;;;;;;;;;;21.54;57.65;102510.47;7279418;19;152247;-48
2021/11/15 10:37:12;;;;;;;;;;;;;;;21.54;56.85;102516.09;7281126;19;153794;-49
2021/11/15 10:39:40;;;;;;;;;;;;;;;21.50;56.92;102513.00;7281392;19;154527;-48
2021/11/15 10:42:11;;;;;;;;;;;;;;;21.54;56.53;102514.13;7280949;19;153388;-48
2021/11/15 10:44:44;;;;;;;;;;;;;;;21.49;56.25;102508.50;7278222;19;154656;-49
2021/11/15 10:47:11;;;;;;;;;;;;;;;21.51;56.60;102500.63;7279285;19;152608;-48
2021/11/15 10:49:51;;;;;;;;;;;;;;;21.49;56.20;102502.88;7279794;19;152168;-49
2021/11/15 10:52:54;;;;;;;;;;;;;;;21.47;56.29;102495.84;7274625;19;153220;-48
2021/11/15 10:55:21;;;;;;;;;;;;;;;21.48;56.17;102501.22;7278240;19;152187;-47
2021/11/15 10:57:50;;;;;;;;;;;;;;;21.48;56.49;102503.16;7281339;19;153698;-48
2021/11/15 11:00:29;;;;;;;;;;;;;;;21.49;56.26;102502.03;7284682;19;152833;-47
2021/11/15 11:03:04;;;;;;;;;;;;;;;21.44;56.00;102508.47;7281059;19;152987;-47
2021/11/15 11:05:31;;;;;;;;;;;;;;;21.39;56.12;102505.69;7279260;19;155645;-48
2021/11/15 11:08:03;;;;;;;;;;;;;;;21.40;56.04;102509.31;7279774;19;152102;-49
2021/11/15 11:10:38;;;;;;;;;;;;;;;21.41;56.40;102503.41;7285361;19;153796;-47
2021/11/15 11:13:05;;;;;;;;;;;;;;;21.34;56.40;102497.22;7286680;19;153172;-49
2021/11/15 11:15:39;;;;;;;;;;;;;;;21.33;56.48;102494.69;7287684;19;152629;-48
2021/11/15 11:18:15;;;;;;;;;;;;;;;21.37;56.22;102490.19;7287167;19;152866;-48
2021/11/15 11:26:14;;;;;;;;;;;;;;;21.28;56.23;102487.91;7282993;19;153983;-48
2021/11/15 11:28:47;;;;;;;;;;;;;;;21.24;56.12;102488.75;7283882;19;152130;-47
2021/11/15 11:31:15;;;;;;;;;;;;;;;21.26;56.14;102494.91;7286709;19;152006;-47
2021/11/15 11:33:44;;;;;;;;;;;;;;;21.16;56.25;102495.75;7285829;19;152858;-48
2021/11/15 11:36:13;;;;;;;;;;;;;;;21.14;56.48;102491.50;7282354;19;152302;-48
2021/11/15 11:38:45;;;;;;;;;;;;;;;21.11;56.30;102480.81;7280777;19;153854;-47
2021/11/15 11:41:26;;;;;;;;;;;;;;;21.11;56.45;102478.00;7273424;19;152380;-47
2021/11/15 11:43:53;;;;;;;;;;;;;;;21.04;56.49;102478.22;7293888;19;152063;-49
2021/11/15 11:46:23;;;;;;;;;;;;;;;21.06;56.46;102476.00;7283903;19;154020;-48
2021/11/15 11:48:55;;;;;;;;;;;;;;;21.08;56.35;102481.31;7283463;19;152637;-47
2021/11/15 11:51:26;;;;;;;;;;;;;;;21.07;56.22;102480.50;7286559;19;153805;-48
2021/11/15 11:54:06;;;;;;;;;;;;;;;21.03;55.91;102476.53;7284433;19;153813;-48
2021/11/15 11:56:33;;;;;;;;;;;;;;;21.01;55.99;102473.16;7285973;19;152366;-49
2021/11/15 11:59:11;;;;;;;;;;;;;;;21.01;55.92;102475.13;7286391;19;152643;-48
2021/11/15 12:01:37;;;;;;;;;;;;;;;20.97;55.98;102472.03;7285009;19;153952;-48
2021/11/15 12:04:10;;;;;;;;;;;;;;;20.94;55.86;102478.19;7286322;19;151740;-47
2021/11/15 12:06:38;;;;;;;;;;;;;;;20.92;55.93;102473.97;7292870;19;153354;-48
2021/11/15 12:09:05;;;;;;;;;;;;;;;20.90;56.31;102463.00;7281576;19;151796;-48
2021/11/15 12:11:33;;;;;;;;;;;;;;;20.88;55.91;102461.59;7286144;19;153523;-47
2021/11/15 12:14:00;;;;;;;;;;;;;;;20.86;55.89;102461.84;7285644;19;153255;-48
2021/11/15 12:16:45;;;;;;;;;;;;;;;20.83;56.17;102460.44;7285682;19;151802;-47
2021/11/15 12:19:13;;;;;;;;;;;;;;;20.83;56.27;102460.44;7283239;19;154146;-47
2021/11/15 12:21:40;;;;;;;;;;;;;;;20.80;56.44;102463.78;7284305;19;154004;-47
2021/11/15 12:24:16;;;;;;;;;;;;;;;20.80;56.30;102463.78;7283768;19;152472;-47
2021/11/15 12:26:47;;;;;;;;;;;;;;;20.81;55.92;102457.06;7284879;19;153929;-50
2021/11/15 12:29:19;;;;;;;;;;;;;;;20.84;56.03;102456.53;7288787;19;154228;-47
2021/11/15 12:31:49;;;;;;;;;;;;;;;20.81;56.30;102468.28;7285237;19;153378;-47
2021/11/15 12:34:17;;;;;;;;;;;;;;;20.79;56.05;102462.13;7283843;19;152758;-48
2021/11/15 12:36:48;;;;;;;;;;;;;;;20.78;56.05;102462.38;7285058;19;152118;-47
2021/11/15 12:39:18;;;;;;;;;;;;;;;20.78;55.79;102454.81;7281377;19;153433;-50
2021/11/15 12:41:50;;;;;;;;;;;;;;;20.80;55.83;102455.34;7284152;19;153511;-48
2021/11/15 12:44:26;;;;;;;;;;;;;;;20.82;55.65;102447.50;7284347;19;152378;-48
2021/11/15 12:47:00;;;;;;;;;;;;;;;20.80;55.91;102446.94;7282791;19;153405;-48